KCCB/CCB METAR and TAF weather

Enter ICAO airport designator
Station Type Date Time Source
KCCB METAR 2018/09/20 18:15 UTC NOAA

KCCB 201815Z AUTO 25006KT 10SM CLR 26/13 A2988 RMK AO2


Station Type Date Time Source
KCCB Decoded METAR 2018/09/20 18:15 UTC NOAA

Station name not available
Sep 20, 2018 - 02:15 PM EDT / 2018.09.20 1815 UTC
Wind: from the WSW (250 degrees) at 7 MPH (6 KT):0
Visibility: 10 mile(s):0
Sky conditions: clear
Temperature: 78 F (26 C)
Dew Point: 55 F (13 C)
Relative Humidity: 44%
Pressure (altimeter): 29.88 in. Hg (1011 hPa)
ob: KCCB 201815Z AUTO 25006KT 10SM CLR 26/13 A2988 RMK AO2
cycle: 18

Station Type Date Time Source
KCCB TAF UTC NOAA

Error!


Example: see airport list